• Join FlightAware (Why Join?)
  • Login
  • US Flag 
06:05PM EDT


 

Airport Tracker/Info


-or-


 

Live Flight TrackerFlight Track Log ✈ CXA8232 ✈ 10-Feb-2014 ✈ ZSJN / TNA - ZSHC / HGH

Flight Track Log - Related Links

Times and Time Zones

All times are in EST time to prevent confusion due to time zone crossing. See the CXA8232 flight status page for this flight to view local times or setup timezone preferences in your user account.

Time Position Orientation Groundspeed Altitude Reporting Facility
EST Latitude Longitude Course Direction KTS MPH feet Rate Location/Type
08:34AM 35.8849 117.7225 157° South  Level Estimated
08:35AM 35.7769 117.7781 157° South  Level Estimated
08:36AM 35.6687 117.8334 157° South  Level Estimated
08:37AM 35.5606 117.8886 157° South  Level Estimated
08:38AM 35.4524 117.9437 157° South  Level Estimated
08:39AM 35.3442 117.9986 158° South  Level Estimated
08:40AM 35.2360 118.0534 158° South  Level Estimated
08:41AM 35.1278 118.1080 158° South  Level Estimated
08:42AM 35.0195 118.1625 158° South  Level Estimated
08:43AM 34.9113 118.2168 158° South  Level Estimated
08:44AM 34.8029 118.2710 158° South  Level Estimated
08:45AM 34.6946 118.3251 158° South  Level Estimated
08:46AM 34.5863 118.3790 158° South  Level Estimated
08:47AM 34.4779 118.4327 158° South  Level Estimated
08:48AM 34.3695 118.4864 158° South  Level Estimated
08:49AM 34.2610 118.5398 158° South  Level Estimated
08:50AM 34.1526 118.5932 158° South  Level Estimated
08:51AM 34.0441 118.6464 158° South  Level Estimated
08:52AM 33.9356 118.6995 158° South  Level Estimated
08:53AM 33.8271 118.7524 158° South  Level Estimated
08:54AM 33.7185 118.8052 158° South  Level Estimated
08:55AM 33.6100 118.8579 158° South  Level Estimated
08:56AM 33.5014 118.9105 158° South  Level Estimated
08:57AM 33.3928 118.9629 158° South  Level Estimated
08:58AM 33.2841 119.0151 158° South  Level Estimated
08:59AM 33.1755 119.0673 158° South  Level Estimated
09:00AM 33.0668 119.1193 158° South  Level Estimated
09:01AM 32.9581 119.1712 158° South  Level Estimated
09:02AM 32.8494 119.2230 158° South  Level Estimated
09:03AM 32.7407 119.2746 158° South  Level Estimated
09:04AM 32.6319 119.3261 158° South  Level Estimated
09:05AM 32.5231 119.3775 158° South  Level Estimated
09:06AM 32.4143 119.4288 158° South  Level Estimated
09:07AM 32.3055 119.4799 158° South  Level Estimated
09:08AM 32.1967 119.5309 158° South  Level Estimated
09:09AM 32.0878 119.5818 158° South  Level Estimated
09:10AM 31.9789 119.6326 158° South  Level Estimated
09:11AM 31.8700 119.6832 158° South  Level Estimated
09:12AM 31.7611 119.7338 158° South  Level Estimated
09:13AM 31.6521 119.7842 158° South  Level Estimated
09:14AM 31.5432 119.8345 159° South  Level Estimated
09:15AM 31.4342 119.8847 159° South  Level Estimated
09:16AM 31.3252 119.9347 159° South  Level Estimated
09:17AM 31.2162 119.9847 159° South  Level Estimated
09:18AM 31.1071 120.0345 159° South  Level Estimated
09:19AM 30.9981 120.0842 159° South  Level Estimated
09:20AM 30.8890 120.1338 159° South  Level Estimated
09:21AM 30.7799 120.1833 159° South  Level Estimated
09:22AM 30.6708 120.2327 159° South  Level Estimated
09:23AM 30.5616 120.2820 159° South  Level Estimated
09:24AM 30.4525 120.3311 159° South  Level Estimated
09:25AM 30.3433 120.3801 159° South  Level Estimated
09:26AM 30.2341 120.4291 159° South  Level Estimated
09:27AM 30.2283 120.4317 159° South  Level Estimated
09:28AM 30.2283 120.4317 319° Northwest  Level Estimated
09:29AM 30.2283 120.4317 319° Northwest  Level Estimated
09:30AM 30.2283 120.4317 319° Northwest  Level Estimated
09:31AM 30.2283 120.4317 319° Northwest  Level Estimated
09:32AM 30.2283 120.4317 319° Northwest  Level Estimated
09:33AM 30.2283 120.4317 319° Northwest  Level Estimated
09:34AM 30.2283 120.4317 319° Northwest  Level Estimated
09:35AM 30.2283 120.4317 319° Northwest  Level Estimated
09:36AM 30.2283 120.4317 319° Northwest  Level Estimated
09:37AM 30.2283 120.4317 319° Northwest  Level Estimated
09:38AM 30.2283 120.4317 319° Northwest  Level Estimated
09:39AM 30.2283 120.4317 319° Northwest  Level Estimated
09:40AM 30.2283 120.4317 319° Northwest  Level Estimated
09:41AM 30.2283 120.4317 319° Northwest  Level Estimated
09:42AM 30.2283 120.4317 319° Northwest  Level Estimated